Strensall, United Kingdom
Current Conditions -  °F | °C
As of 12:50 PM on Friday 28 Nov 2014 (Local Time) from EGXU Reporting Station
Haze Haze  
Wind Chill: 52°   Ceiling: 600
Heat Index: 52°   Visibility: 4mi
Dew Point: 50°   Wind: 6mph
Humidity: 94%   Direction: 70°ENE
Pressure: 29.71"   Gusts: NA
Location:  54.04°N, 1.04°W
Report Text: EGXU 281250Z 07005KT 7000 BR BKN006 OVC013 11/10 Q1006 YLO1 TEMPO 4000 BKN007 GRN
Loading
Personal Weather Stations






























Interactive Weather Map New forecast layout! Learn more

10-Day Weather Forecast

Advertisements
Track Severe Weather on mobile